createdAt,value
2018-05-08T00:02:14.246Z,3.67
2018-05-08T00:04:40.924Z,2.70
2018-05-08T00:07:07.708Z,3.57
2018-05-08T00:09:34.384Z,3.50
2018-05-08T00:12:01.060Z,3.20
2018-05-08T00:14:27.747Z,4.43
2018-05-08T00:16:54.440Z,3.70
2018-05-08T00:19:21.138Z,3.00
2018-05-08T00:21:47.839Z,3.17
2018-05-08T00:24:14.535Z,3.80
2018-05-08T00:26:41.209Z,3.60
2018-05-08T00:29:07.856Z,4.20
2018-05-08T00:31:34.671Z,3.50
2018-05-08T00:34:01.353Z,3.63
2018-05-08T00:36:28.057Z,3.20
2018-05-08T00:38:54.751Z,3.20
2018-05-08T00:41:21.429Z,3.90
2018-05-08T00:43:48.179Z,4.03
2018-05-08T00:46:15.056Z,3.53
2018-05-08T00:48:41.739Z,3.93
2018-05-08T00:51:08.439Z,3.33
2018-05-08T00:53:35.117Z,3.30
2018-05-08T00:56:01.801Z,3.50
2018-05-08T00:58:28.480Z,3.77
2018-05-08T01:00:55.179Z,2.97
2018-05-08T01:03:21.841Z,3.97
2018-05-08T01:05:48.543Z,4.00
2018-05-08T01:08:15.400Z,3.53
2018-05-08T01:10:42.100Z,3.20
2018-05-08T01:13:08.844Z,3.60
2018-05-08T01:15:35.545Z,3.63
2018-05-08T01:18:02.265Z,4.17
2018-05-08T01:20:28.943Z,4.43
2018-05-08T01:22:55.716Z,3.53
2018-05-08T01:25:22.404Z,3.67
2018-05-08T01:27:49.127Z,4.07
2018-05-08T01:30:15.932Z,4.10
2018-05-08T01:32:42.713Z,3.53
2018-05-08T01:35:09.461Z,3.57
2018-05-08T01:37:36.255Z,3.60
2018-05-08T01:40:02.919Z,4.73
2018-05-08T01:42:29.597Z,4.30
2018-05-08T01:44:56.291Z,4.73
2018-05-08T01:47:22.990Z,4.10
2018-05-08T01:49:49.699Z,5.57
2018-05-08T01:52:16.397Z,4.13
2018-05-08T01:54:43.091Z,4.00
2018-05-08T01:57:09.771Z,3.10
2018-05-08T01:59:36.562Z,3.17
2018-05-08T02:02:03.244Z,3.70
2018-05-08T02:04:29.911Z,2.93
2018-05-08T02:06:56.616Z,3.20
2018-05-08T02:09:23.275Z,3.60
2018-05-08T02:11:49.968Z,4.50
2018-05-08T02:14:16.814Z,3.87
2018-05-08T02:16:43.519Z,4.70
2018-05-08T02:19:10.207Z,3.97
2018-05-08T02:21:36.970Z,4.03
2018-05-08T02:24:03.675Z,4.10
2018-05-08T02:26:30.335Z,4.03
2018-05-08T02:28:57.025Z,3.87
2018-05-08T02:31:23.711Z,4.07
2018-05-08T02:33:50.439Z,4.00
2018-05-08T02:36:17.141Z,3.37
2018-05-08T02:38:43.856Z,4.07
2018-05-08T02:41:10.584Z,3.57
2018-05-08T02:43:37.283Z,3.93
2018-05-08T02:46:04.152Z,3.33
2018-05-08T02:48:30.811Z,4.40
2018-05-08T02:50:57.508Z,4.23
2018-05-08T02:53:24.195Z,3.57
2018-05-08T02:55:50.900Z,3.80
2018-05-08T02:58:17.586Z,3.00
2018-05-08T03:00:44.275Z,3.90
2018-05-08T03:03:10.959Z,4.00
2018-05-08T03:05:37.782Z,4.57
2018-05-08T03:08:04.831Z,4.03
2018-05-08T03:10:31.531Z,3.40
2018-05-08T03:12:58.268Z,3.93
2018-05-08T03:15:24.952Z,3.73
2018-05-08T03:17:51.648Z,4.00
2018-05-08T03:20:18.342Z,5.13
2018-05-08T03:22:45.064Z,4.00
2018-05-08T03:25:11.787Z,4.30
2018-05-08T03:27:38.483Z,4.47
2018-05-08T03:30:05.185Z,3.87
2018-05-08T03:32:32.156Z,5.27
2018-05-08T03:34:58.839Z,5.67
2018-05-08T03:37:25.651Z,4.67
2018-05-08T03:39:52.357Z,4.07
2018-05-08T03:42:19.064Z,4.50
2018-05-08T03:44:45.758Z,4.30
2018-05-08T03:47:12.535Z,4.00
2018-05-08T03:49:39.208Z,4.60
2018-05-08T03:52:05.903Z,4.13
2018-05-08T03:54:32.594Z,4.07
2018-05-08T03:56:59.267Z,4.20
2018-05-08T03:59:25.941Z,4.33
2018-05-08T04:01:58.376Z,4.00
2018-05-08T04:04:30.828Z,4.33
2018-05-08T04:07:03.269Z,4.77
2018-05-08T04:09:29.955Z,4.00
2018-05-08T04:11:56.646Z,3.30
2018-05-08T04:14:23.363Z,3.50
2018-05-08T04:16:50.031Z,3.80
2018-05-08T04:19:16.731Z,3.03
2018-05-08T04:21:43.463Z,4.87
2018-05-08T04:24:10.156Z,3.17
2018-05-08T04:26:36.835Z,4.20
2018-05-08T04:29:03.719Z,3.27
2018-05-08T04:31:30.401Z,3.93
2018-05-08T04:33:57.338Z,3.90
2018-05-08T04:36:24.188Z,3.43
2018-05-08T04:38:50.876Z,3.70
2018-05-08T04:41:17.560Z,4.27
2018-05-08T04:43:44.267Z,3.50
2018-05-08T04:46:10.939Z,4.07
2018-05-08T04:48:37.620Z,3.43
2018-05-08T04:51:04.314Z,3.57
2018-05-08T04:53:30.996Z,4.53
2018-05-08T04:55:57.761Z,4.40
2018-05-08T04:58:24.371Z,4.30
2018-05-08T05:00:51.075Z,4.10
2018-05-08T05:03:17.821Z,4.40
2018-05-08T05:05:44.475Z,5.30
2018-05-08T05:08:11.191Z,4.53
2018-05-08T05:10:37.859Z,5.10
2018-05-08T05:13:04.547Z,5.57
2018-05-08T05:15:31.311Z,5.90
2018-05-08T05:17:57.987Z,5.40
2018-05-08T05:20:24.671Z,6.00
2018-05-08T05:22:51.344Z,5.70
2018-05-08T05:25:18.044Z,5.20
2018-05-08T05:27:44.740Z,5.07
2018-05-08T05:30:11.667Z,5.83
2018-05-08T05:32:38.339Z,6.57
2018-05-08T05:35:05.024Z,5.87
2018-05-08T05:37:31.696Z,6.07
2018-05-08T05:39:58.535Z,6.33
2018-05-08T05:42:25.218Z,6.50
2018-05-08T05:44:51.915Z,6.97
2018-05-08T05:47:18.695Z,6.83
2018-05-08T05:49:45.444Z,6.50
2018-05-08T05:52:12.153Z,6.13
2018-05-08T05:54:38.818Z,6.90
2018-05-08T05:57:05.527Z,7.10
2018-05-08T05:59:32.203Z,7.10
2018-05-08T06:01:58.911Z,9.53
2018-05-08T06:04:25.588Z,6.90
2018-05-08T06:06:52.280Z,6.30
2018-05-08T06:09:18.977Z,7.67
2018-05-08T06:11:45.681Z,5.80
2018-05-08T06:14:12.372Z,5.07
2018-05-08T06:16:39.076Z,4.80
2018-05-08T06:19:05.777Z,4.33
2018-05-08T06:21:32.447Z,4.67
2018-05-08T06:23:59.152Z,4.87
2018-05-08T06:26:25.832Z,4.70
2018-05-08T06:28:52.528Z,5.37
2018-05-08T06:31:19.243Z,5.07
2018-05-08T06:33:45.907Z,5.50
2018-05-08T06:36:12.616Z,5.70
2018-05-08T06:38:39.342Z,4.40
2018-05-08T06:41:06.032Z,4.10
2018-05-08T06:43:32.740Z,4.37
2018-05-08T06:45:59.447Z,4.27
2018-05-08T06:48:26.154Z,4.97
2018-05-08T06:50:52.850Z,4.43
2018-05-08T06:53:19.532Z,4.50
2018-05-08T06:55:46.232Z,4.10
2018-05-08T06:58:12.979Z,4.37
2018-05-08T07:00:39.691Z,5.17
2018-05-08T07:03:06.395Z,4.60
2018-05-08T07:05:33.080Z,3.80
2018-05-08T07:07:59.774Z,3.80
2018-05-08T07:10:26.482Z,4.83
2018-05-08T07:12:53.190Z,4.30
2018-05-08T07:15:19.872Z,4.10
2018-05-08T07:17:46.581Z,4.67
2018-05-08T07:20:13.284Z,4.80
2018-05-08T07:22:39.968Z,4.10
2018-05-08T07:25:06.655Z,3.70
2018-05-08T07:27:33.332Z,3.77
2018-05-08T07:30:00.045Z,3.73
2018-05-08T07:32:26.722Z,4.03
2018-05-08T07:34:53.405Z,4.03
2018-05-08T07:37:20.199Z,3.13
2018-05-08T07:39:47.051Z,3.10
2018-05-08T07:42:13.740Z,2.90
2018-05-08T07:44:40.434Z,2.90
2018-05-08T07:47:07.137Z,2.60
2018-05-08T07:49:33.815Z,2.97
2018-05-08T07:52:00.507Z,2.40
2018-05-08T07:54:27.204Z,3.07
2018-05-08T07:56:53.900Z,3.37
2018-05-08T07:59:20.594Z,3.17
2018-05-08T08:01:47.328Z,2.50
2018-05-08T08:04:14.045Z,2.73
2018-05-08T08:06:41.461Z,2.97
2018-05-08T08:09:08.127Z,2.80
2018-05-08T08:11:34.822Z,3.10
2018-05-08T08:14:01.508Z,2.47
2018-05-08T08:16:28.188Z,2.20
2018-05-08T08:18:54.896Z,2.50
2018-05-08T08:21:21.575Z,2.43
2018-05-08T08:23:48.246Z,2.60
2018-05-08T08:26:14.931Z,1.80
2018-05-08T08:28:41.605Z,2.57
2018-05-08T08:31:08.287Z,2.43
2018-05-08T08:33:35.022Z,2.87
2018-05-08T08:36:01.932Z,3.10
2018-05-08T08:38:28.618Z,3.63
2018-05-08T08:40:55.510Z,2.23
2018-05-08T08:43:22.132Z,2.67
2018-05-08T08:45:48.837Z,1.87
2018-05-08T08:48:15.492Z,2.50
2018-05-08T08:50:42.191Z,2.67
2018-05-08T08:53:08.877Z,2.17
2018-05-08T08:55:35.580Z,2.33
2018-05-08T08:58:02.253Z,2.03
2018-05-08T09:00:29.025Z,2.43
2018-05-08T09:02:55.694Z,2.40
2018-05-08T09:05:22.374Z,2.57
2018-05-08T09:07:49.104Z,2.03
2018-05-08T09:10:15.788Z,2.80
2018-05-08T09:12:42.481Z,2.60
2018-05-08T09:15:09.189Z,2.50
2018-05-08T09:17:35.885Z,2.70
2018-05-08T09:20:02.560Z,2.70
2018-05-08T09:22:29.238Z,3.20
2018-05-08T09:24:55.935Z,2.70
2018-05-08T09:27:22.817Z,2.50
2018-05-08T09:29:49.469Z,2.30
2018-05-08T09:32:16.140Z,2.37
2018-05-08T09:34:42.835Z,2.17
2018-05-08T09:37:09.532Z,2.50
2018-05-08T09:39:36.225Z,2.27
2018-05-08T09:42:03.044Z,2.43
2018-05-08T09:44:31.199Z,2.20
2018-05-08T09:46:58.002Z,2.10
2018-05-08T09:49:24.947Z,2.33
2018-05-08T09:51:51.635Z,2.30
2018-05-08T09:54:18.454Z,2.47
2018-05-08T09:56:45.233Z,2.03
2018-05-08T09:59:11.928Z,2.00
2018-05-08T10:01:38.623Z,1.70
2018-05-08T10:04:05.397Z,1.93
2018-05-08T10:06:32.149Z,2.03
2018-05-08T10:08:58.769Z,3.50
2018-05-08T10:11:25.455Z,1.57
2018-05-08T10:13:52.346Z,2.23
2018-05-08T10:16:19.028Z,1.90
2018-05-08T10:18:45.731Z,2.13
2018-05-08T10:21:12.409Z,1.63
2018-05-08T10:23:39.211Z,1.80
2018-05-08T10:26:05.996Z,2.03
2018-05-08T10:28:32.739Z,1.87
2018-05-08T10:30:59.388Z,2.00
2018-05-08T10:33:26.100Z,1.87
2018-05-08T10:35:52.803Z,1.70
2018-05-08T10:38:19.521Z,1.90
2018-05-08T10:40:46.204Z,2.03
2018-05-08T10:43:12.881Z,1.90
2018-05-08T10:45:39.568Z,1.77
2018-05-08T10:48:06.244Z,1.80
2018-05-08T10:50:32.998Z,3.00
2018-05-08T10:52:59.676Z,2.47
2018-05-08T10:55:26.396Z,2.30
2018-05-08T10:57:53.131Z,1.90
2018-05-08T11:00:19.970Z,2.20
2018-05-08T11:02:46.636Z,1.97
2018-05-08T11:05:13.331Z,2.17
2018-05-08T11:07:40.005Z,2.00
2018-05-08T11:10:06.676Z,2.43
2018-05-08T11:12:33.386Z,1.90
2018-05-08T11:15:00.019Z,1.30
2018-05-08T11:17:26.888Z,2.00
2018-05-08T11:19:53.575Z,1.90
2018-05-08T11:22:20.272Z,1.70
2018-05-08T11:24:46.952Z,1.73
2018-05-08T11:27:13.676Z,2.23
2018-05-08T11:29:40.362Z,1.73
2018-05-08T11:32:07.055Z,1.70
2018-05-08T11:34:33.741Z,1.97
2018-05-08T11:37:00.452Z,1.73
2018-05-08T11:39:27.163Z,1.60
2018-05-08T11:41:53.911Z,1.50
2018-05-08T11:44:20.652Z,1.60
2018-05-08T11:46:47.550Z,1.50
2018-05-08T11:49:14.243Z,1.30
2018-05-08T11:51:40.983Z,1.57
2018-05-08T11:54:07.685Z,1.50
2018-05-08T11:56:34.395Z,1.57
2018-05-08T11:59:01.067Z,1.60
2018-05-08T12:01:27.764Z,1.80
2018-05-08T12:03:54.464Z,1.50
2018-05-08T12:06:21.167Z,1.60
2018-05-08T12:08:47.864Z,1.70
2018-05-08T12:11:14.559Z,1.73
2018-05-08T12:13:41.264Z,1.53
2018-05-08T12:16:07.976Z,1.67
2018-05-08T12:18:34.675Z,1.70
2018-05-08T12:21:01.352Z,2.07
2018-05-08T12:23:28.060Z,2.00
2018-05-08T12:25:54.837Z,1.67
2018-05-08T12:28:21.511Z,1.70
2018-05-08T12:30:48.204Z,1.67
2018-05-08T12:33:14.951Z,1.80
2018-05-08T12:35:41.644Z,1.80
2018-05-08T12:38:08.367Z,1.57
2018-05-08T12:40:35.048Z,1.87
2018-05-08T12:43:01.726Z,1.57
2018-05-08T12:45:28.508Z,1.60
2018-05-08T12:47:55.224Z,1.67
2018-05-08T12:50:21.905Z,1.33
2018-05-08T12:52:48.617Z,1.70
2018-05-08T12:55:15.318Z,1.50
2018-05-08T12:57:42.045Z,1.80
2018-05-08T13:00:08.763Z,1.83
2018-05-08T13:02:35.440Z,1.70
2018-05-08T13:05:02.190Z,1.93
2018-05-08T13:07:28.856Z,2.00
2018-05-08T13:09:55.599Z,2.20
2018-05-08T13:12:22.307Z,1.90
2018-05-08T13:14:49.003Z,1.70
2018-05-08T13:17:15.698Z,1.60
2018-05-08T13:19:42.371Z,1.50
2018-05-08T13:22:09.052Z,1.97
2018-05-08T13:24:35.865Z,2.20
2018-05-08T13:27:02.536Z,1.70
2018-05-08T13:29:29.241Z,1.50
2018-05-08T13:31:55.945Z,1.97
2018-05-08T13:34:22.632Z,1.93
2018-05-08T13:36:49.395Z,1.53
2018-05-08T13:39:16.958Z,1.70
2018-05-08T13:41:43.655Z,1.90
2018-05-08T13:44:10.343Z,2.30
2018-05-08T13:46:37.053Z,1.97
2018-05-08T13:49:03.771Z,2.03
2018-05-08T13:51:30.461Z,1.73
2018-05-08T13:53:57.158Z,1.57
2018-05-08T13:56:23.832Z,1.73
2018-05-08T13:58:50.520Z,1.73
2018-05-08T14:01:17.179Z,2.10
2018-05-08T14:03:43.900Z,1.70
2018-05-08T14:06:10.608Z,1.70
2018-05-08T14:08:37.306Z,1.90
2018-05-08T14:11:04.020Z,1.77
2018-05-08T14:13:30.708Z,1.43
2018-05-08T14:15:57.423Z,1.40
2018-05-08T14:18:24.085Z,1.60
2018-05-08T14:20:50.807Z,2.40
2018-05-08T14:23:17.520Z,2.30
2018-05-08T14:25:44.221Z,1.70
2018-05-08T14:28:10.904Z,1.70
2018-05-08T14:30:37.585Z,1.63
2018-05-08T14:33:04.308Z,1.90
2018-05-08T14:35:31.120Z,1.47
2018-05-08T14:37:57.920Z,1.80
2018-05-08T14:40:24.643Z,1.53
2018-05-08T14:42:51.324Z,1.80
2018-05-08T14:45:18.005Z,1.67
2018-05-08T14:47:44.689Z,1.57
2018-05-08T14:50:11.443Z,1.67
2018-05-08T14:52:38.185Z,1.67
2018-05-08T14:55:04.925Z,1.97
2018-05-08T14:57:31.614Z,1.70
2018-05-08T14:59:58.347Z,2.00
2018-05-08T15:02:25.020Z,1.80
2018-05-08T15:04:51.752Z,1.60
2018-05-08T15:07:18.428Z,1.50
2018-05-08T15:09:45.136Z,1.87
2018-05-08T15:12:11.817Z,1.60
2018-05-08T15:14:38.491Z,1.77
2018-05-08T15:17:05.188Z,1.60
2018-05-08T15:19:31.860Z,1.40
2018-05-08T15:21:58.584Z,1.40
2018-05-08T15:24:25.267Z,1.80
2018-05-08T15:26:51.973Z,1.53
2018-05-08T15:29:18.664Z,1.73
2018-05-08T15:31:45.456Z,1.57
2018-05-08T15:34:12.148Z,1.53
2018-05-08T15:36:39.392Z,1.80
2018-05-08T15:39:06.061Z,1.30
2018-05-08T15:41:32.927Z,1.73
2018-05-08T15:43:59.615Z,1.40
2018-05-08T15:46:26.317Z,1.60
2018-05-08T15:48:53.015Z,1.63
2018-05-08T15:51:19.714Z,2.00
2018-05-08T15:53:46.455Z,1.80
2018-05-08T15:56:13.174Z,1.60
2018-05-08T15:58:39.929Z,1.60
2018-05-08T16:01:06.828Z,1.37
2018-05-08T16:03:33.517Z,1.50
2018-05-08T16:06:00.440Z,1.90
2018-05-08T16:08:27.031Z,1.40
2018-05-08T16:10:53.763Z,1.43
2018-05-08T16:13:20.435Z,1.80
2018-05-08T16:15:47.128Z,1.40
2018-05-08T16:18:13.850Z,1.70
2018-05-08T16:20:40.594Z,1.60
2018-05-08T16:23:07.317Z,1.87
2018-05-08T16:25:34.032Z,1.60
2018-05-08T16:28:00.808Z,1.80
2018-05-08T16:30:27.522Z,2.07
2018-05-08T16:32:54.449Z,1.70
2018-05-08T16:35:21.255Z,1.90
2018-05-08T16:37:47.956Z,1.93
2018-05-08T16:40:14.673Z,1.10
2018-05-08T16:42:41.364Z,1.33
2018-05-08T16:45:08.039Z,1.30
2018-05-08T16:47:34.748Z,1.67
2018-05-08T16:50:01.457Z,1.70
2018-05-08T16:52:28.168Z,2.03
2018-05-08T16:54:54.931Z,2.27
2018-05-08T16:57:21.699Z,2.17
2018-05-08T16:59:48.391Z,2.23
2018-05-08T17:02:15.190Z,1.90
2018-05-08T17:04:41.925Z,2.30
2018-05-08T17:07:08.568Z,2.40
2018-05-08T17:09:35.268Z,2.10
2018-05-08T17:12:01.972Z,1.90
2018-05-08T17:14:28.690Z,1.87
2018-05-08T17:16:55.607Z,2.07
2018-05-08T17:19:22.324Z,2.10
2018-05-08T17:21:49.033Z,1.77
2018-05-08T17:24:15.750Z,2.00
2018-05-08T17:26:42.424Z,1.47
2018-05-08T17:29:09.129Z,1.87
2018-05-08T17:31:35.838Z,2.00
2018-05-08T17:34:02.537Z,1.80
2018-05-08T17:36:29.240Z,2.10
2018-05-08T17:38:55.986Z,1.90
2018-05-08T17:41:22.703Z,2.30
2018-05-08T17:43:49.394Z,1.83
2018-05-08T17:46:16.113Z,2.00
2018-05-08T17:48:42.845Z,1.80
2018-05-08T17:51:09.604Z,1.70
2018-05-08T17:53:36.358Z,1.90
2018-05-08T17:56:03.377Z,2.20
2018-05-08T17:58:30.016Z,2.33
2018-05-08T18:00:56.696Z,2.23
2018-05-08T18:03:23.427Z,2.03
2018-05-08T18:05:50.322Z,1.87
2018-05-08T18:08:16.994Z,1.70
2018-05-08T18:10:43.705Z,2.60
2018-05-08T18:13:10.441Z,2.30
2018-05-08T18:15:37.143Z,2.43
2018-05-08T18:18:03.833Z,1.80
2018-05-08T18:20:30.572Z,1.70
2018-05-08T18:22:57.276Z,2.00
2018-05-08T18:25:23.979Z,2.00
2018-05-08T18:27:50.733Z,2.00
2018-05-08T18:30:17.554Z,1.90
2018-05-08T18:32:44.407Z,2.10
2018-05-08T18:35:11.111Z,2.10
2018-05-08T18:37:37.828Z,2.07
2018-05-08T18:40:04.517Z,2.23
2018-05-08T18:42:31.245Z,2.30
2018-05-08T18:44:57.939Z,2.10
2018-05-08T18:47:24.681Z,1.87
2018-05-08T18:49:51.390Z,2.07
2018-05-08T18:52:18.303Z,2.23
2018-05-08T18:54:45.001Z,2.40
2018-05-08T18:57:11.711Z,2.53
2018-05-08T18:59:38.528Z,2.20
2018-05-08T19:02:05.222Z,2.43
2018-05-08T19:04:31.939Z,1.97
2018-05-08T19:06:58.704Z,2.40
2018-05-08T19:09:25.386Z,3.10
2018-05-08T19:11:52.105Z,2.53
2018-05-08T19:14:18.815Z,2.90
2018-05-08T19:16:45.504Z,2.70
2018-05-08T19:19:17.879Z,2.93
2018-05-08T19:21:44.588Z,2.80
2018-05-08T19:24:17.012Z,3.10
2018-05-08T19:26:43.710Z,2.60
2018-05-08T19:29:31.153Z,3.13
2018-05-08T19:31:57.891Z,2.30
2018-05-08T19:34:24.532Z,2.27
2018-05-08T19:36:56.923Z,2.80
2018-05-08T19:39:23.615Z,2.90
2018-05-08T19:41:50.305Z,3.10
2018-05-08T19:44:17.126Z,2.57
2018-05-08T19:46:43.953Z,2.30
2018-05-08T19:49:10.557Z,2.67
2018-05-08T19:51:37.270Z,2.77
2018-05-08T19:54:03.976Z,3.40
2018-05-08T19:56:30.709Z,2.67
2018-05-08T19:58:57.382Z,3.47
2018-05-08T20:01:24.097Z,2.60
2018-05-08T20:03:50.813Z,2.87
2018-05-08T20:06:17.465Z,2.73
2018-05-08T20:08:44.279Z,2.97
2018-05-08T20:11:10.887Z,3.03
2018-05-08T20:13:38.490Z,3.20
2018-05-08T20:16:05.222Z,3.20
2018-05-08T20:18:31.933Z,3.83
2018-05-08T20:20:58.742Z,3.70
2018-05-08T20:23:25.460Z,4.00
2018-05-08T20:25:52.263Z,4.13
2018-05-08T20:28:18.985Z,3.90
2018-05-08T20:30:45.791Z,3.20
2018-05-08T20:33:12.384Z,3.28
2018-05-08T20:35:39.087Z,4.10
2018-05-08T20:38:06.325Z,3.50
2018-05-08T20:40:33.000Z,3.63
2018-05-08T20:42:59.703Z,3.80
2018-05-08T20:45:26.389Z,3.33
2018-05-08T20:47:53.108Z,3.13
2018-05-08T20:50:19.785Z,3.20
2018-05-08T20:52:46.500Z,2.80
2018-05-08T20:55:13.224Z,6.00
2018-05-08T20:57:39.930Z,3.77
2018-05-08T21:00:06.609Z,3.70
2018-05-08T21:02:33.322Z,3.67
2018-05-08T21:05:00.051Z,3.33
2018-05-08T21:07:26.867Z,3.40
2018-05-08T21:09:53.597Z,3.20
2018-05-08T21:12:20.276Z,3.60
2018-05-08T21:14:46.982Z,3.30
2018-05-08T21:17:13.681Z,3.90
2018-05-08T21:19:40.397Z,3.60
2018-05-08T21:22:07.080Z,3.53
2018-05-08T21:24:33.832Z,5.07
2018-05-08T21:27:00.484Z,3.90
2018-05-08T21:29:32.854Z,3.80
2018-05-08T21:31:59.544Z,4.17
2018-05-08T21:34:26.413Z,3.57
2018-05-08T21:36:53.175Z,3.10
2018-05-08T21:39:19.863Z,4.10
2018-05-08T21:41:46.569Z,3.67
2018-05-08T21:44:13.264Z,3.90
2018-05-08T21:46:39.956Z,3.80
2018-05-08T21:49:06.657Z,3.37
2018-05-08T21:51:33.354Z,3.37
2018-05-08T21:54:00.100Z,3.57
2018-05-08T21:56:26.836Z,3.40
2018-05-08T21:58:53.540Z,3.83
2018-05-08T22:01:20.222Z,3.83
2018-05-08T22:03:46.940Z,3.20
2018-05-08T22:06:13.632Z,3.80
2018-05-08T22:08:40.357Z,3.40
2018-05-08T22:11:07.156Z,2.73
2018-05-08T22:13:33.845Z,3.43
2018-05-08T22:16:00.552Z,3.10
2018-05-08T22:18:27.233Z,3.40
2018-05-08T22:20:54.098Z,3.50
2018-05-08T22:23:20.786Z,3.30
2018-05-08T22:25:47.480Z,3.53
2018-05-08T22:28:14.165Z,3.20
2018-05-08T22:30:40.955Z,2.93
2018-05-08T22:33:07.645Z,2.90
2018-05-08T22:35:34.317Z,3.97
2018-05-08T22:38:01.016Z,2.83
2018-05-08T22:40:27.883Z,4.20
2018-05-08T22:42:54.580Z,3.30
2018-05-08T22:45:21.353Z,3.20
2018-05-08T22:47:48.047Z,4.13
2018-05-08T22:50:14.716Z,3.30
2018-05-08T22:52:41.392Z,4.10
2018-05-08T22:55:08.088Z,3.00
2018-05-08T22:57:34.759Z,3.40
2018-05-08T23:00:01.451Z,3.40
2018-05-08T23:02:28.136Z,3.37
2018-05-08T23:04:54.816Z,3.37
2018-05-08T23:07:21.528Z,3.43
2018-05-08T23:09:48.219Z,2.77
2018-05-08T23:12:14.926Z,3.60
2018-05-08T23:14:41.607Z,3.00
2018-05-08T23:17:08.302Z,3.23
2018-05-08T23:19:34.977Z,3.53
2018-05-08T23:22:01.680Z,3.73
2018-05-08T23:24:28.356Z,4.03
2018-05-08T23:26:55.164Z,2.83
2018-05-08T23:29:21.839Z,3.40
2018-05-08T23:31:48.688Z,3.80
2018-05-08T23:34:15.369Z,3.40
2018-05-08T23:36:42.100Z,3.67
2018-05-08T23:39:08.797Z,3.50
2018-05-08T23:41:35.445Z,3.40
2018-05-08T23:44:02.137Z,3.00
2018-05-08T23:46:28.816Z,3.80
2018-05-08T23:48:55.508Z,3.50
2018-05-08T23:51:22.181Z,3.50
2018-05-08T23:53:48.872Z,3.30
2018-05-08T23:56:15.551Z,3.67
2018-05-08T23:58:42.411Z,3.37
